sensor_id;sensor_type;location;lat;lon;timestamp;P1;durP1;ratioP1;P2;durP2;ratioP2
38725;SDS011;24474;48.906;8.808;2022-09-13T00:00:47;2.60;;;1.50;;
38725;SDS011;24474;48.906;8.808;2022-09-13T00:03:14;2.72;;;1.60;;
38725;SDS011;24474;48.906;8.808;2022-09-13T00:05:41;3.10;;;1.67;;
38725;SDS011;24474;48.906;8.808;2022-09-13T00:08:07;3.58;;;2.03;;
38725;SDS011;24474;48.906;8.808;2022-09-13T00:10:34;4.25;;;1.70;;
38725;SDS011;24474;48.906;8.808;2022-09-13T00:13:02;3.03;;;1.50;;
38725;SDS011;24474;48.906;8.808;2022-09-13T00:15:29;3.25;;;1.95;;
38725;SDS011;24474;48.906;8.808;2022-09-13T00:17:55;3.22;;;1.70;;
38725;SDS011;24474;48.906;8.808;2022-09-13T00:20:22;2.13;;;1.65;;
38725;SDS011;24474;48.906;8.808;2022-09-13T00:22:48;2.65;;;1.70;;
38725;SDS011;24474;48.906;8.808;2022-09-13T00:25:13;2.70;;;1.60;;
38725;SDS011;24474;48.906;8.808;2022-09-13T00:27:39;2.38;;;1.60;;
38725;SDS011;24474;48.906;8.808;2022-09-13T00:30:05;7.53;;;3.22;;
38725;SDS011;24474;48.906;8.808;2022-09-13T00:32:33;2.30;;;1.73;;
38725;SDS011;24474;48.906;8.808;2022-09-13T00:35:00;3.72;;;1.85;;
38725;SDS011;24474;48.906;8.808;2022-09-13T00:37:27;4.97;;;2.00;;
38725;SDS011;24474;48.906;8.808;2022-09-13T00:39:53;3.80;;;2.00;;
38725;SDS011;24474;48.906;8.808;2022-09-13T00:42:23;3.47;;;1.70;;
38725;SDS011;24474;48.906;8.808;2022-09-13T00:47:49;3.55;;;1.73;;
38725;SDS011;24474;48.906;8.808;2022-09-13T00:50:24;2.33;;;1.73;;
38725;SDS011;24474;48.906;8.808;2022-09-13T00:53:06;2.90;;;1.80;;
38725;SDS011;24474;48.906;8.808;2022-09-13T01:01:17;2.53;;;1.63;;
38725;SDS011;24474;48.906;8.808;2022-09-13T01:03:48;5.90;;;1.70;;
38725;SDS011;24474;48.906;8.808;2022-09-13T01:06:15;3.28;;;1.90;;
38725;SDS011;24474;48.906;8.808;2022-09-13T01:08:50;2.58;;;1.70;;
38725;SDS011;24474;48.906;8.808;2022-09-13T01:11:19;3.42;;;1.90;;
38725;SDS011;24474;48.906;8.808;2022-09-13T01:14:13;3.20;;;1.50;;
38725;SDS011;24474;48.906;8.808;2022-09-13T01:16:41;2.30;;;1.98;;
38725;SDS011;24474;48.906;8.808;2022-09-13T01:19:08;3.42;;;2.13;;
38725;SDS011;24474;48.906;8.808;2022-09-13T01:31:06;2.28;;;1.52;;
38725;SDS011;24474;48.906;8.808;2022-09-13T01:53:09;3.20;;;2.08;;
38725;SDS011;24474;48.906;8.808;2022-09-13T01:56:11;2.55;;;1.83;;
38725;SDS011;24474;48.906;8.808;2022-09-13T01:58:53;3.60;;;2.00;;
38725;SDS011;24474;48.906;8.808;2022-09-13T02:04:35;2.50;;;1.60;;
38725;SDS011;24474;48.906;8.808;2022-09-13T02:07:16;2.80;;;1.85;;
38725;SDS011;24474;48.906;8.808;2022-09-13T02:12:26;4.13;;;1.70;;
38725;SDS011;24474;48.906;8.808;2022-09-13T02:15:17;3.17;;;1.77;;
38725;SDS011;24474;48.906;8.808;2022-09-13T02:17:49;2.78;;;1.88;;
38725;SDS011;24474;48.906;8.808;2022-09-13T02:22:53;2.63;;;1.80;;
38725;SDS011;24474;48.906;8.808;2022-09-13T02:25:22;3.45;;;2.05;;
38725;SDS011;24474;48.906;8.808;2022-09-13T02:27:51;2.75;;;1.73;;
38725;SDS011;24474;48.906;8.808;2022-09-13T02:30:24;3.22;;;2.08;;
38725;SDS011;24474;48.906;8.808;2022-09-13T02:32:59;3.00;;;1.98;;
38725;SDS011;24474;48.906;8.808;2022-09-13T02:38:08;3.88;;;2.30;;
38725;SDS011;24474;48.906;8.808;2022-09-13T02:40:39;2.35;;;1.95;;
38725;SDS011;24474;48.906;8.808;2022-09-13T02:43:14;4.82;;;1.95;;
38725;SDS011;24474;48.906;8.808;2022-09-13T02:45:50;2.30;;;1.80;;
38725;SDS011;24474;48.906;8.808;2022-09-13T02:48:37;6.35;;;2.40;;
38725;SDS011;24474;48.906;8.808;2022-09-13T02:53:54;4.30;;;2.25;;
38725;SDS011;24474;48.906;8.808;2022-09-13T02:56:50;3.10;;;2.50;;
38725;SDS011;24474;48.906;8.808;2022-09-13T02:59:21;6.00;;;2.30;;
38725;SDS011;24474;48.906;8.808;2022-09-13T03:01:51;6.00;;;2.50;;
38725;SDS011;24474;48.906;8.808;2022-09-13T03:04:19;5.55;;;2.35;;
38725;SDS011;24474;48.906;8.808;2022-09-13T03:06:48;4.68;;;2.15;;
38725;SDS011;24474;48.906;8.808;2022-09-13T03:09:14;5.85;;;2.00;;
38725;SDS011;24474;48.906;8.808;2022-09-13T03:17:24;2.97;;;1.90;;
38725;SDS011;24474;48.906;8.808;2022-09-13T03:23:27;3.75;;;1.85;;
38725;SDS011;24474;48.906;8.808;2022-09-13T03:26:20;3.83;;;2.30;;
38725;SDS011;24474;48.906;8.808;2022-09-13T03:40:02;3.58;;;2.10;;
38725;SDS011;24474;48.906;8.808;2022-09-13T03:42:34;3.28;;;2.00;;
38725;SDS011;24474;48.906;8.808;2022-09-13T03:45:09;3.28;;;2.00;;
38725;SDS011;24474;48.906;8.808;2022-09-13T03:47:36;5.10;;;2.20;;
38725;SDS011;24474;48.906;8.808;2022-09-13T03:50:06;5.68;;;2.10;;
38725;SDS011;24474;48.906;8.808;2022-09-13T03:52:33;4.20;;;2.15;;
38725;SDS011;24474;48.906;8.808;2022-09-13T03:55:00;3.70;;;1.98;;
38725;SDS011;24474;48.906;8.808;2022-09-13T03:57:26;7.95;;;2.35;;
38725;SDS011;24474;48.906;8.808;2022-09-13T03:59:53;5.22;;;2.28;;
38725;SDS011;24474;48.906;8.808;2022-09-13T04:02:20;3.08;;;1.85;;
38725;SDS011;24474;48.906;8.808;2022-09-13T04:04:48;4.53;;;1.98;;
38725;SDS011;24474;48.906;8.808;2022-09-13T04:07:17;4.07;;;2.33;;
38725;SDS011;24474;48.906;8.808;2022-09-13T04:09:45;3.10;;;1.90;;
38725;SDS011;24474;48.906;8.808;2022-09-13T04:12:11;3.55;;;2.00;;
38725;SDS011;24474;48.906;8.808;2022-09-13T04:14:38;2.42;;;2.00;;
38725;SDS011;24474;48.906;8.808;2022-09-13T04:17:05;3.78;;;2.20;;
38725;SDS011;24474;48.906;8.808;2022-09-13T04:19:33;4.13;;;2.53;;
38725;SDS011;24474;48.906;8.808;2022-09-13T04:21:59;7.35;;;2.72;;
38725;SDS011;24474;48.906;8.808;2022-09-13T04:24:25;4.70;;;2.30;;
38725;SDS011;24474;48.906;8.808;2022-09-13T04:26:53;3.58;;;2.50;;
38725;SDS011;24474;48.906;8.808;2022-09-13T04:29:20;7.10;;;2.30;;
38725;SDS011;24474;48.906;8.808;2022-09-13T04:31:47;7.63;;;2.25;;
38725;SDS011;24474;48.906;8.808;2022-09-13T04:34:13;3.20;;;2.00;;
38725;SDS011;24474;48.906;8.808;2022-09-13T04:36:39;6.25;;;2.40;;
38725;SDS011;24474;48.906;8.808;2022-09-13T04:39:06;4.05;;;2.45;;
38725;SDS011;24474;48.906;8.808;2022-09-13T04:41:32;3.05;;;2.20;;
38725;SDS011;24474;48.906;8.808;2022-09-13T04:43:58;3.08;;;2.05;;
38725;SDS011;24474;48.906;8.808;2022-09-13T04:46:24;4.53;;;2.55;;
38725;SDS011;24474;48.906;8.808;2022-09-13T04:48:51;3.47;;;2.22;;
38725;SDS011;24474;48.906;8.808;2022-09-13T04:51:17;3.08;;;2.00;;
38725;SDS011;24474;48.906;8.808;2022-09-13T04:53:52;4.57;;;2.13;;
38725;SDS011;24474;48.906;8.808;2022-09-13T04:56:19;5.60;;;3.20;;
38725;SDS011;24474;48.906;8.808;2022-09-13T04:58:46;5.40;;;2.47;;
38725;SDS011;24474;48.906;8.808;2022-09-13T05:01:12;3.90;;;2.50;;
38725;SDS011;24474;48.906;8.808;2022-09-13T05:03:39;3.75;;;2.80;;
38725;SDS011;24474;48.906;8.808;2022-09-13T05:06:05;5.10;;;3.33;;
38725;SDS011;24474;48.906;8.808;2022-09-13T05:08:35;5.25;;;3.65;;
38725;SDS011;24474;48.906;8.808;2022-09-13T05:11:03;5.50;;;3.20;;
38725;SDS011;24474;48.906;8.808;2022-09-13T05:13:29;4.55;;;2.97;;
38725;SDS011;24474;48.906;8.808;2022-09-13T05:15:56;4.90;;;2.70;;
38725;SDS011;24474;48.906;8.808;2022-09-13T05:18:28;5.95;;;3.83;;
38725;SDS011;24474;48.906;8.808;2022-09-13T05:20:56;11.75;;;7.35;;
38725;SDS011;24474;48.906;8.808;2022-09-13T05:23:24;13.18;;;8.73;;
38725;SDS011;24474;48.906;8.808;2022-09-13T05:25:54;11.15;;;8.93;;
38725;SDS011;24474;48.906;8.808;2022-09-13T05:28:21;10.90;;;7.10;;
38725;SDS011;24474;48.906;8.808;2022-09-13T05:30:57;8.95;;;6.20;;
38725;SDS011;24474;48.906;8.808;2022-09-13T05:33:28;9.68;;;6.38;;
38725;SDS011;24474;48.906;8.808;2022-09-13T05:35:57;9.95;;;6.15;;
38725;SDS011;24474;48.906;8.808;2022-09-13T05:38:24;8.10;;;6.05;;
38725;SDS011;24474;48.906;8.808;2022-09-13T05:40:55;8.55;;;5.50;;
38725;SDS011;24474;48.906;8.808;2022-09-13T05:43:26;7.97;;;5.00;;
38725;SDS011;24474;48.906;8.808;2022-09-13T05:46:02;10.15;;;5.70;;
38725;SDS011;24474;48.906;8.808;2022-09-13T05:48:38;6.20;;;4.20;;
38725;SDS011;24474;48.906;8.808;2022-09-13T05:51:08;5.53;;;2.78;;
38725;SDS011;24474;48.906;8.808;2022-09-13T05:53:43;4.85;;;2.50;;
38725;SDS011;24474;48.906;8.808;2022-09-13T05:56:12;6.75;;;2.58;;
38725;SDS011;24474;48.906;8.808;2022-09-13T05:58:41;6.70;;;3.60;;
38725;SDS011;24474;48.906;8.808;2022-09-13T06:01:08;6.45;;;3.50;;
38725;SDS011;24474;48.906;8.808;2022-09-13T06:03:36;5.07;;;3.80;;
38725;SDS011;24474;48.906;8.808;2022-09-13T06:06:05;8.10;;;3.65;;
38725;SDS011;24474;48.906;8.808;2022-09-13T06:11:07;8.23;;;3.78;;
38725;SDS011;24474;48.906;8.808;2022-09-13T06:13:34;8.05;;;3.70;;
38725;SDS011;24474;48.906;8.808;2022-09-13T06:16:01;5.38;;;3.33;;
38725;SDS011;24474;48.906;8.808;2022-09-13T06:18:32;4.45;;;2.80;;
38725;SDS011;24474;48.906;8.808;2022-09-13T06:21:00;8.02;;;3.70;;
38725;SDS011;24474;48.906;8.808;2022-09-13T06:23:27;7.90;;;3.28;;
38725;SDS011;24474;48.906;8.808;2022-09-13T06:28:29;5.68;;;3.13;;
38725;SDS011;24474;48.906;8.808;2022-09-13T06:31:02;4.50;;;2.80;;
38725;SDS011;24474;48.906;8.808;2022-09-13T06:33:30;4.15;;;2.58;;
38725;SDS011;24474;48.906;8.808;2022-09-13T06:36:02;5.57;;;3.03;;
38725;SDS011;24474;48.906;8.808;2022-09-13T06:38:29;7.82;;;3.30;;
38725;SDS011;24474;48.906;8.808;2022-09-13T06:40:59;6.00;;;2.97;;
38725;SDS011;24474;48.906;8.808;2022-09-13T06:43:39;7.07;;;2.80;;
38725;SDS011;24474;48.906;8.808;2022-09-13T06:46:07;5.38;;;2.97;;
38725;SDS011;24474;48.906;8.808;2022-09-13T06:48:41;5.30;;;2.65;;
38725;SDS011;24474;48.906;8.808;2022-09-13T06:51:11;5.10;;;2.63;;
38725;SDS011;24474;48.906;8.808;2022-09-13T06:53:42;4.63;;;2.80;;
38725;SDS011;24474;48.906;8.808;2022-09-13T06:56:10;4.50;;;3.17;;
38725;SDS011;24474;48.906;8.808;2022-09-13T06:58:38;5.93;;;3.22;;
38725;SDS011;24474;48.906;8.808;2022-09-13T07:04:01;5.25;;;3.50;;
38725;SDS011;24474;48.906;8.808;2022-09-13T07:06:29;5.28;;;3.00;;
38725;SDS011;24474;48.906;8.808;2022-09-13T07:08:56;4.60;;;2.72;;
38725;SDS011;24474;48.906;8.808;2022-09-13T07:11:25;3.92;;;2.50;;
38725;SDS011;24474;48.906;8.808;2022-09-13T07:13:56;4.80;;;2.40;;
38725;SDS011;24474;48.906;8.808;2022-09-13T07:16:24;5.38;;;2.40;;
38725;SDS011;24474;48.906;8.808;2022-09-13T07:18:55;4.80;;;2.50;;
38725;SDS011;24474;48.906;8.808;2022-09-13T07:21:22;2.95;;;2.10;;
38725;SDS011;24474;48.906;8.808;2022-09-13T07:23:49;6.07;;;2.20;;
38725;SDS011;24474;48.906;8.808;2022-09-13T07:26:16;4.95;;;2.50;;
38725;SDS011;24474;48.906;8.808;2022-09-13T07:28:45;4.57;;;2.13;;
38725;SDS011;24474;48.906;8.808;2022-09-13T07:31:17;2.65;;;2.03;;
38725;SDS011;24474;48.906;8.808;2022-09-13T07:33:47;4.13;;;2.00;;
38725;SDS011;24474;48.906;8.808;2022-09-13T07:36:22;2.35;;;1.80;;
38725;SDS011;24474;48.906;8.808;2022-09-13T07:38:48;3.38;;;2.08;;
38725;SDS011;24474;48.906;8.808;2022-09-13T07:41:15;4.55;;;1.80;;
38725;SDS011;24474;48.906;8.808;2022-09-13T07:43:42;2.70;;;1.73;;
38725;SDS011;24474;48.906;8.808;2022-09-13T07:46:10;4.00;;;1.80;;
38725;SDS011;24474;48.906;8.808;2022-09-13T07:48:42;4.40;;;2.00;;
38725;SDS011;24474;48.906;8.808;2022-09-13T07:51:13;3.45;;;2.05;;
38725;SDS011;24474;48.906;8.808;2022-09-13T07:53:41;5.80;;;2.00;;
38725;SDS011;24474;48.906;8.808;2022-09-13T07:56:09;3.33;;;1.90;;
38725;SDS011;24474;48.906;8.808;2022-09-13T07:58:36;5.38;;;2.17;;
38725;SDS011;24474;48.906;8.808;2022-09-13T08:01:05;4.13;;;2.28;;
38725;SDS011;24474;48.906;8.808;2022-09-13T08:03:33;4.00;;;2.00;;
38725;SDS011;24474;48.906;8.808;2022-09-13T08:06:00;4.72;;;2.20;;
38725;SDS011;24474;48.906;8.808;2022-09-13T08:08:26;4.43;;;2.22;;
38725;SDS011;24474;48.906;8.808;2022-09-13T08:10:52;5.47;;;2.22;;
38725;SDS011;24474;48.906;8.808;2022-09-13T08:13:20;4.07;;;2.00;;
38725;SDS011;24474;48.906;8.808;2022-09-13T08:15:47;6.03;;;2.00;;
38725;SDS011;24474;48.906;8.808;2022-09-13T08:18:15;2.72;;;1.77;;
38725;SDS011;24474;48.906;8.808;2022-09-13T08:20:43;4.13;;;1.70;;
38725;SDS011;24474;48.906;8.808;2022-09-13T08:23:09;4.82;;;2.72;;
38725;SDS011;24474;48.906;8.808;2022-09-13T08:25:36;3.95;;;1.88;;
38725;SDS011;24474;48.906;8.808;2022-09-13T08:28:14;4.70;;;2.10;;
38725;SDS011;24474;48.906;8.808;2022-09-13T08:30:41;4.55;;;2.03;;
38725;SDS011;24474;48.906;8.808;2022-09-13T08:33:08;5.05;;;2.03;;
38725;SDS011;24474;48.906;8.808;2022-09-13T08:35:34;5.18;;;2.08;;
38725;SDS011;24474;48.906;8.808;2022-09-13T08:38:01;4.32;;;2.00;;
38725;SDS011;24474;48.906;8.808;2022-09-13T08:40:29;4.70;;;1.88;;
38725;SDS011;24474;48.906;8.808;2022-09-13T08:43:06;5.50;;;1.75;;
38725;SDS011;24474;48.906;8.808;2022-09-13T08:48:49;2.75;;;1.70;;
38725;SDS011;24474;48.906;8.808;2022-09-13T08:53:53;2.63;;;1.42;;
38725;SDS011;24474;48.906;8.808;2022-09-13T08:59:05;3.08;;;1.63;;
38725;SDS011;24474;48.906;8.808;2022-09-13T09:01:54;5.78;;;1.73;;
38725;SDS011;24474;48.906;8.808;2022-09-13T09:07:41;3.80;;;1.75;;
38725;SDS011;24474;48.906;8.808;2022-09-13T09:10:50;3.95;;;1.80;;
38725;SDS011;24474;48.906;8.808;2022-09-13T09:15:48;5.75;;;1.50;;
38725;SDS011;24474;48.906;8.808;2022-09-13T09:18:33;5.88;;;1.88;;
38725;SDS011;24474;48.906;8.808;2022-09-13T09:21:02;6.38;;;2.20;;
38725;SDS011;24474;48.906;8.808;2022-09-13T09:23:35;3.83;;;1.77;;
38725;SDS011;24474;48.906;8.808;2022-09-13T09:26:17;5.45;;;2.28;;
38725;SDS011;24474;48.906;8.808;2022-09-13T09:28:58;3.80;;;1.92;;
38725;SDS011;24474;48.906;8.808;2022-09-13T09:34:25;5.60;;;2.00;;
38725;SDS011;24474;48.906;8.808;2022-09-13T09:39:21;7.68;;;2.42;;
38725;SDS011;24474;48.906;8.808;2022-09-13T09:41:56;3.78;;;2.20;;
38725;SDS011;24474;48.906;8.808;2022-09-13T09:44:23;4.63;;;2.28;;
38725;SDS011;24474;48.906;8.808;2022-09-13T09:46:56;4.38;;;2.08;;
38725;SDS011;24474;48.906;8.808;2022-09-13T10:00:29;3.95;;;1.73;;
38725;SDS011;24474;48.906;8.808;2022-09-13T10:02:58;6.35;;;2.08;;
38725;SDS011;24474;48.906;8.808;2022-09-13T10:05:25;6.55;;;1.80;;
38725;SDS011;24474;48.906;8.808;2022-09-13T10:07:52;7.35;;;2.10;;
38725;SDS011;24474;48.906;8.808;2022-09-13T10:10:34;4.45;;;1.65;;
38725;SDS011;24474;48.906;8.808;2022-09-13T10:13:06;2.63;;;1.50;;
38725;SDS011;24474;48.906;8.808;2022-09-13T10:15:51;5.35;;;1.60;;
38725;SDS011;24474;48.906;8.808;2022-09-13T10:18:25;5.10;;;1.50;;
38725;SDS011;24474;48.906;8.808;2022-09-13T10:21:01;8.50;;;1.63;;
38725;SDS011;24474;48.906;8.808;2022-09-13T10:23:43;5.82;;;1.77;;
38725;SDS011;24474;48.906;8.808;2022-09-13T10:26:23;4.63;;;1.75;;
38725;SDS011;24474;48.906;8.808;2022-09-13T10:28:53;4.22;;;1.75;;
38725;SDS011;24474;48.906;8.808;2022-09-13T10:31:33;6.45;;;1.50;;
38725;SDS011;24474;48.906;8.808;2022-09-13T10:34:05;7.20;;;2.03;;
38725;SDS011;24474;48.906;8.808;2022-09-13T10:36:59;3.85;;;1.50;;
38725;SDS011;24474;48.906;8.808;2022-09-13T10:39:28;6.35;;;1.63;;
38725;SDS011;24474;48.906;8.808;2022-09-13T10:44:30;4.65;;;1.52;;
38725;SDS011;24474;48.906;8.808;2022-09-13T10:47:12;6.95;;;1.40;;
38725;SDS011;24474;48.906;8.808;2022-09-13T10:49:47;3.08;;;1.13;;
38725;SDS011;24474;48.906;8.808;2022-09-13T10:55:41;7.30;;;1.52;;
38725;SDS011;24474;48.906;8.808;2022-09-13T10:57:43;2.65;;;1.35;;
38725;SDS011;24474;48.906;8.808;2022-09-13T11:00:15;3.58;;;1.55;;
38725;SDS011;24474;48.906;8.808;2022-09-13T11:05:23;7.32;;;1.90;;
38725;SDS011;24474;48.906;8.808;2022-09-13T11:25:48;5.05;;;1.27;;
38725;SDS011;24474;48.906;8.808;2022-09-13T11:36:45;2.42;;;1.05;;
38725;SDS011;24474;48.906;8.808;2022-09-13T11:47:40;2.85;;;0.88;;
38725;SDS011;24474;48.906;8.808;2022-09-13T11:55:40;2.00;;;0.98;;
38725;SDS011;24474;48.906;8.808;2022-09-13T11:58:17;3.40;;;1.10;;
38725;SDS011;24474;48.906;8.808;2022-09-13T12:01:09;4.85;;;1.08;;
38725;SDS011;24474;48.906;8.808;2022-09-13T12:09:39;4.93;;;1.10;;
38725;SDS011;24474;48.906;8.808;2022-09-13T12:11:58;1.92;;;0.90;;
38725;SDS011;24474;48.906;8.808;2022-09-13T12:17:22;2.05;;;0.90;;
38725;SDS011;24474;48.906;8.808;2022-09-13T12:19:51;5.03;;;1.10;;
38725;SDS011;24474;48.906;8.808;2022-09-13T12:22:21;3.05;;;0.88;;
38725;SDS011;24474;48.906;8.808;2022-09-13T12:24:53;2.35;;;0.90;;
38725;SDS011;24474;48.906;8.808;2022-09-13T12:27:33;2.70;;;0.90;;
38725;SDS011;24474;48.906;8.808;2022-09-13T12:30:24;6.25;;;1.02;;
38725;SDS011;24474;48.906;8.808;2022-09-13T12:33:04;3.50;;;1.00;;
38725;SDS011;24474;48.906;8.808;2022-09-13T12:35:39;2.95;;;0.88;;
38725;SDS011;24474;48.906;8.808;2022-09-13T12:38:22;3.45;;;1.30;;
38725;SDS011;24474;48.906;8.808;2022-09-13T12:54:28;3.08;;;1.20;;
38725;SDS011;24474;48.906;8.808;2022-09-13T12:59:50;4.13;;;1.10;;
38725;SDS011;24474;48.906;8.808;2022-09-13T13:05:46;1.92;;;1.00;;
38725;SDS011;24474;48.906;8.808;2022-09-13T13:08:05;4.53;;;1.25;;
38725;SDS011;24474;48.906;8.808;2022-09-13T13:10:42;3.58;;;1.05;;
38725;SDS011;24474;48.906;8.808;2022-09-13T13:13:31;4.47;;;1.02;;
38725;SDS011;24474;48.906;8.808;2022-09-13T13:16:03;4.53;;;1.20;;
38725;SDS011;24474;48.906;8.808;2022-09-13T13:34:27;5.18;;;1.08;;
38725;SDS011;24474;48.906;8.808;2022-09-13T13:37:00;2.22;;;1.00;;
38725;SDS011;24474;48.906;8.808;2022-09-13T13:39:48;4.88;;;0.90;;
38725;SDS011;24474;48.906;8.808;2022-09-13T13:42:34;2.13;;;1.10;;
38725;SDS011;24474;48.906;8.808;2022-09-13T13:45:15;3.33;;;1.38;;
38725;SDS011;24474;48.906;8.808;2022-09-13T13:48:32;3.60;;;1.10;;
38725;SDS011;24474;48.906;8.808;2022-09-13T13:53:35;4.72;;;1.20;;
38725;SDS011;24474;48.906;8.808;2022-09-13T13:56:43;6.78;;;1.23;;
38725;SDS011;24474;48.906;8.808;2022-09-13T13:59:18;2.28;;;1.08;;
38725;SDS011;24474;48.906;8.808;2022-09-13T14:01:56;4.32;;;1.00;;
38725;SDS011;24474;48.906;8.808;2022-09-13T14:07:29;3.78;;;1.20;;
38725;SDS011;24474;48.906;8.808;2022-09-13T14:15:57;5.35;;;1.20;;
38725;SDS011;24474;48.906;8.808;2022-09-13T14:18:44;4.18;;;1.10;;
38725;SDS011;24474;48.906;8.808;2022-09-13T14:21:24;5.15;;;1.30;;
38725;SDS011;24474;48.906;8.808;2022-09-13T14:26:46;1.23;;;0.80;;
38725;SDS011;24474;48.906;8.808;2022-09-13T14:29:19;2.17;;;0.82;;
38725;SDS011;24474;48.906;8.808;2022-09-13T14:31:47;5.95;;;1.10;;
38725;SDS011;24474;48.906;8.808;2022-09-13T14:34:26;3.50;;;1.30;;
38725;SDS011;24474;48.906;8.808;2022-09-13T14:37:04;2.88;;;1.00;;
38725;SDS011;24474;48.906;8.808;2022-09-13T14:39:51;5.25;;;1.20;;
38725;SDS011;24474;48.906;8.808;2022-09-13T14:42:18;7.23;;;1.20;;
38725;SDS011;24474;48.906;8.808;2022-09-13T14:44:45;2.70;;;0.75;;
38725;SDS011;24474;48.906;8.808;2022-09-13T14:50:15;2.35;;;0.90;;
38725;SDS011;24474;48.906;8.808;2022-09-13T14:52:47;3.75;;;0.90;;
38725;SDS011;24474;48.906;8.808;2022-09-13T14:55:21;4.13;;;1.00;;
38725;SDS011;24474;48.906;8.808;2022-09-13T14:58:04;6.75;;;0.95;;
38725;SDS011;24474;48.906;8.808;2022-09-13T15:00:48;5.45;;;1.10;;
38725;SDS011;24474;48.906;8.808;2022-09-13T15:03:22;7.43;;;1.00;;
38725;SDS011;24474;48.906;8.808;2022-09-13T15:05:49;2.08;;;0.90;;
38725;SDS011;24474;48.906;8.808;2022-09-13T15:08:22;3.10;;;1.02;;
38725;SDS011;24474;48.906;8.808;2022-09-13T15:10:51;4.72;;;1.05;;
38725;SDS011;24474;48.906;8.808;2022-09-13T15:13:20;4.88;;;1.10;;
38725;SDS011;24474;48.906;8.808;2022-09-13T15:15:47;3.90;;;1.10;;
38725;SDS011;24474;48.906;8.808;2022-09-13T15:26:19;6.57;;;1.00;;
38725;SDS011;24474;48.906;8.808;2022-09-13T15:31:19;10.23;;;1.50;;
38725;SDS011;24474;48.906;8.808;2022-09-13T15:33:46;6.32;;;1.80;;
38725;SDS011;24474;48.906;8.808;2022-09-13T15:41:56;4.22;;;1.00;;
38725;SDS011;24474;48.906;8.808;2022-09-13T15:44:26;3.72;;;1.10;;
38725;SDS011;24474;48.906;8.808;2022-09-13T15:46:54;1.75;;;1.00;;
38725;SDS011;24474;48.906;8.808;2022-09-13T15:49:25;6.22;;;0.95;;
38725;SDS011;24474;48.906;8.808;2022-09-13T15:51:57;2.97;;;0.90;;
38725;SDS011;24474;48.906;8.808;2022-09-13T15:54:57;4.32;;;0.80;;
38725;SDS011;24474;48.906;8.808;2022-09-13T15:57:18;4.70;;;0.90;;
38725;SDS011;24474;48.906;8.808;2022-09-13T15:59:48;2.45;;;0.95;;
38725;SDS011;24474;48.906;8.808;2022-09-13T16:02:24;2.80;;;0.95;;
38725;SDS011;24474;48.906;8.808;2022-09-13T16:04:53;1.35;;;0.80;;
38725;SDS011;24474;48.906;8.808;2022-09-13T16:07:21;2.05;;;0.90;;
38725;SDS011;24474;48.906;8.808;2022-09-13T16:09:47;4.10;;;1.10;;
38725;SDS011;24474;48.906;8.808;2022-09-13T16:12:13;2.95;;;1.00;;
38725;SDS011;24474;48.906;8.808;2022-09-13T16:14:39;3.55;;;1.02;;
38725;SDS011;24474;48.906;8.808;2022-09-13T16:17:09;2.42;;;1.10;;
38725;SDS011;24474;48.906;8.808;2022-09-13T16:19:37;3.95;;;1.10;;
38725;SDS011;24474;48.906;8.808;2022-09-13T16:22:03;5.15;;;0.95;;
38725;SDS011;24474;48.906;8.808;2022-09-13T16:24:30;4.25;;;1.10;;
38725;SDS011;24474;48.906;8.808;2022-09-13T16:26:59;1.85;;;0.90;;
38725;SDS011;24474;48.906;8.808;2022-09-13T16:29:25;2.92;;;0.90;;
38725;SDS011;24474;48.906;8.808;2022-09-13T16:31:51;4.68;;;1.20;;
38725;SDS011;24474;48.906;8.808;2022-09-13T16:34:18;5.15;;;1.23;;
38725;SDS011;24474;48.906;8.808;2022-09-13T16:36:45;4.55;;;0.90;;
38725;SDS011;24474;48.906;8.808;2022-09-13T16:39:11;4.95;;;1.17;;
38725;SDS011;24474;48.906;8.808;2022-09-13T16:41:38;4.43;;;1.30;;
38725;SDS011;24474;48.906;8.808;2022-09-13T16:44:04;2.53;;;1.23;;
38725;SDS011;24474;48.906;8.808;2022-09-13T16:46:30;3.70;;;1.13;;
38725;SDS011;24474;48.906;8.808;2022-09-13T16:48:56;4.25;;;1.20;;
38725;SDS011;24474;48.906;8.808;2022-09-13T16:51:22;4.88;;;1.05;;
38725;SDS011;24474;48.906;8.808;2022-09-13T16:53:49;4.15;;;0.95;;
38725;SDS011;24474;48.906;8.808;2022-09-13T16:56:16;4.70;;;1.23;;
38725;SDS011;24474;48.906;8.808;2022-09-13T16:58:48;1.92;;;1.00;;
38725;SDS011;24474;48.906;8.808;2022-09-13T17:01:27;3.33;;;1.30;;
38725;SDS011;24474;48.906;8.808;2022-09-13T17:03:54;4.53;;;1.63;;
38725;SDS011;24474;48.906;8.808;2022-09-13T17:06:20;6.85;;;2.13;;
38725;SDS011;24474;48.906;8.808;2022-09-13T17:08:49;11.23;;;2.00;;
38725;SDS011;24474;48.906;8.808;2022-09-13T17:11:20;6.15;;;1.20;;
38725;SDS011;24474;48.906;8.808;2022-09-13T17:13:48;5.45;;;1.30;;
38725;SDS011;24474;48.906;8.808;2022-09-13T17:18:56;5.05;;;1.27;;
38725;SDS011;24474;48.906;8.808;2022-09-13T17:21:25;4.88;;;1.40;;
38725;SDS011;24474;48.906;8.808;2022-09-13T17:23:51;3.97;;;1.10;;
38725;SDS011;24474;48.906;8.808;2022-09-13T17:26:17;3.50;;;1.20;;
38725;SDS011;24474;48.906;8.808;2022-09-13T17:28:43;4.47;;;1.00;;
38725;SDS011;24474;48.906;8.808;2022-09-13T17:31:08;3.50;;;1.50;;
38725;SDS011;24474;48.906;8.808;2022-09-13T17:33:34;6.60;;;1.40;;
38725;SDS011;24474;48.906;8.808;2022-09-13T17:36:00;10.55;;;1.58;;
38725;SDS011;24474;48.906;8.808;2022-09-13T17:38:32;3.85;;;1.50;;
38725;SDS011;24474;48.906;8.808;2022-09-13T17:41:12;7.53;;;1.55;;
38725;SDS011;24474;48.906;8.808;2022-09-13T17:43:39;7.57;;;1.50;;
38725;SDS011;24474;48.906;8.808;2022-09-13T17:46:08;8.27;;;1.75;;
38725;SDS011;24474;48.906;8.808;2022-09-13T17:48:37;8.75;;;1.67;;
38725;SDS011;24474;48.906;8.808;2022-09-13T17:51:08;7.68;;;1.50;;
38725;SDS011;24474;48.906;8.808;2022-09-13T17:53:36;8.60;;;1.52;;
38725;SDS011;24474;48.906;8.808;2022-09-13T17:56:08;7.25;;;1.50;;
38725;SDS011;24474;48.906;8.808;2022-09-13T17:58:34;12.25;;;1.90;;
38725;SDS011;24474;48.906;8.808;2022-09-13T18:01:04;9.70;;;1.50;;
38725;SDS011;24474;48.906;8.808;2022-09-13T18:05:58;7.35;;;1.40;;
38725;SDS011;24474;48.906;8.808;2022-09-13T18:08:25;9.00;;;1.50;;
38725;SDS011;24474;48.906;8.808;2022-09-13T18:10:52;4.97;;;1.50;;
38725;SDS011;24474;48.906;8.808;2022-09-13T18:13:19;7.15;;;1.40;;
38725;SDS011;24474;48.906;8.808;2022-09-13T18:15:55;9.63;;;1.52;;
38725;SDS011;24474;48.906;8.808;2022-09-13T18:18:22;6.20;;;1.90;;
38725;SDS011;24474;48.906;8.808;2022-09-13T18:20:48;6.43;;;1.70;;
38725;SDS011;24474;48.906;8.808;2022-09-13T18:23:14;5.72;;;1.40;;
38725;SDS011;24474;48.906;8.808;2022-09-13T18:25:39;7.78;;;1.42;;
38725;SDS011;24474;48.906;8.808;2022-09-13T18:28:05;6.47;;;1.60;;
38725;SDS011;24474;48.906;8.808;2022-09-13T18:30:30;5.70;;;1.38;;
38725;SDS011;24474;48.906;8.808;2022-09-13T18:32:56;3.30;;;1.10;;
38725;SDS011;24474;48.906;8.808;2022-09-13T18:35:22;5.43;;;1.27;;
38725;SDS011;24474;48.906;8.808;2022-09-13T18:37:51;4.22;;;1.38;;
38725;SDS011;24474;48.906;8.808;2022-09-13T18:40:17;4.28;;;1.65;;
38725;SDS011;24474;48.906;8.808;2022-09-13T18:42:42;5.30;;;1.52;;
38725;SDS011;24474;48.906;8.808;2022-09-13T18:45:08;4.05;;;1.50;;
38725;SDS011;24474;48.906;8.808;2022-09-13T18:47:34;6.43;;;1.30;;
38725;SDS011;24474;48.906;8.808;2022-09-13T18:49:59;3.45;;;1.27;;
38725;SDS011;24474;48.906;8.808;2022-09-13T18:52:26;3.67;;;1.35;;
38725;SDS011;24474;48.906;8.808;2022-09-13T18:54:51;5.30;;;1.35;;
38725;SDS011;24474;48.906;8.808;2022-09-13T18:57:17;3.53;;;1.02;;
38725;SDS011;24474;48.906;8.808;2022-09-13T18:59:43;4.30;;;1.40;;
38725;SDS011;24474;48.906;8.808;2022-09-13T19:02:09;3.78;;;1.10;;
38725;SDS011;24474;48.906;8.808;2022-09-13T19:04:36;4.85;;;1.15;;
38725;SDS011;24474;48.906;8.808;2022-09-13T19:07:02;4.75;;;1.40;;
38725;SDS011;24474;48.906;8.808;2022-09-13T19:09:38;4.40;;;1.33;;
38725;SDS011;24474;48.906;8.808;2022-09-13T19:12:04;6.13;;;1.48;;